createdAt,value
2022-09-01T00:01:51.272Z,99.90
2022-09-01T00:04:21.764Z,99.90
2022-09-01T00:06:49.041Z,99.90
2022-09-01T00:09:19.374Z,99.90
2022-09-01T00:11:52.792Z,99.90
2022-09-01T00:14:29.963Z,99.90
2022-09-01T00:17:05.609Z,99.90
2022-09-01T00:19:33.584Z,99.90
2022-09-01T00:22:01.325Z,99.90
2022-09-01T00:24:28.928Z,99.90
2022-09-01T00:26:56.692Z,99.90
2022-09-01T00:29:26.059Z,99.90
2022-09-01T00:31:53.538Z,99.90
2022-09-01T00:34:21.462Z,99.90
2022-09-01T00:36:48.357Z,99.90
2022-09-01T00:39:16.121Z,99.90
2022-09-01T00:41:45.060Z,99.90
2022-09-01T00:44:19.081Z,99.90
2022-09-01T00:46:55.388Z,99.90
2022-09-01T00:49:47.244Z,99.90
2022-09-01T00:52:20.436Z,99.90
2022-09-01T00:54:54.216Z,99.90
2022-09-01T00:57:21.448Z,99.90
2022-09-01T01:00:01.893Z,99.90
2022-09-01T01:05:00.690Z,99.90
2022-09-01T01:07:28.851Z,99.90
2022-09-01T01:09:56.172Z,99.90
2022-09-01T01:12:23.904Z,99.90
2022-09-01T01:14:51.376Z,99.90
2022-09-01T01:17:20.686Z,99.90
2022-09-01T01:20:11.453Z,99.90
2022-09-01T01:23:16.073Z,99.90
2022-09-01T01:28:18.926Z,99.90
2022-09-01T01:30:59.378Z,99.90
2022-09-01T01:33:42.732Z,99.90
2022-09-01T01:36:13.363Z,99.90
2022-09-01T01:38:46.973Z,99.90
2022-09-01T01:41:19.660Z,99.90
2022-09-01T01:43:48.389Z,99.90
2022-09-01T01:46:18.225Z,99.90
2022-09-01T01:48:47.152Z,99.90
2022-09-01T01:51:14.526Z,99.90
2022-09-01T01:53:41.517Z,99.90
2022-09-01T01:56:09.859Z,99.90
2022-09-01T01:58:37.086Z,99.90
2022-09-01T02:01:04.185Z,99.90
2022-09-01T02:03:38.603Z,99.90
2022-09-01T02:06:10.523Z,99.90
2022-09-01T02:08:39.365Z,99.90
2022-09-01T02:11:07.812Z,99.90
2022-09-01T02:13:35.313Z,99.90
2022-09-01T02:16:13.037Z,99.90
2022-09-01T02:18:48.289Z,99.90
2022-09-01T02:21:20.533Z,99.90
2022-09-01T02:24:00.392Z,99.90
2022-09-01T02:26:31.336Z,99.90
2022-09-01T02:29:04.674Z,99.90
2022-09-01T02:31:39.305Z,99.90
2022-09-01T02:34:10.782Z,99.90
2022-09-01T02:36:47.653Z,99.90
2022-09-01T02:39:17.218Z,99.90
2022-09-01T02:41:44.610Z,99.90
2022-09-01T02:44:14.847Z,99.90
2022-09-01T02:46:44.271Z,99.90
2022-09-01T02:49:19.817Z,99.90
2022-09-01T02:51:52.266Z,99.90
2022-09-01T02:54:19.316Z,99.90
2022-09-01T02:56:49.952Z,99.90
2022-09-01T02:59:21.781Z,99.90
2022-09-01T03:01:50.672Z,99.90
2022-09-01T03:04:18.840Z,99.90
2022-09-01T03:06:46.890Z,99.90
2022-09-01T03:09:17.293Z,99.90
2022-09-01T03:11:47.758Z,99.90
2022-09-01T03:14:15.057Z,99.90
2022-09-01T03:16:42.304Z,99.90
2022-09-01T03:19:12.107Z,99.90
2022-09-01T03:21:42.035Z,99.90
2022-09-01T03:24:09.986Z,99.90
2022-09-01T03:26:36.999Z,99.90
2022-09-01T03:29:04.474Z,99.90
2022-09-01T03:31:32.101Z,99.90
2022-09-01T03:34:00.752Z,99.90
2022-09-01T03:36:30.165Z,99.90
2022-09-01T03:38:57.419Z,99.90
2022-09-01T03:41:28.480Z,99.90
2022-09-01T03:43:58.249Z,99.90
2022-09-01T03:46:26.787Z,99.90
2022-09-01T03:49:02.215Z,99.90
2022-09-01T03:51:31.511Z,99.90
2022-09-01T03:53:59.450Z,99.90
2022-09-01T03:56:30.056Z,99.90
2022-09-01T03:58:59.696Z,99.90
2022-09-01T04:01:29.656Z,99.90
2022-09-01T04:03:57.245Z,99.90
2022-09-01T04:06:24.730Z,99.90
2022-09-01T04:09:03.107Z,99.90
2022-09-01T04:11:30.854Z,99.90
2022-09-01T04:16:50.673Z,99.90
2022-09-01T04:19:25.845Z,99.90
2022-09-01T04:22:03.355Z,99.90
2022-09-01T04:24:32.928Z,99.90
2022-09-01T04:27:02.815Z,99.90
2022-09-01T04:29:32.148Z,99.90
2022-09-01T04:32:12.972Z,99.90
2022-09-01T04:34:42.574Z,99.90
2022-09-01T04:37:13.361Z,99.90
2022-09-01T04:42:09.516Z,99.90
2022-09-01T04:44:37.010Z,99.90
2022-09-01T04:47:03.945Z,99.90
2022-09-01T04:49:33.854Z,99.90
2022-09-01T04:52:00.930Z,99.90
2022-09-01T04:59:27.183Z,99.90
2022-09-01T05:01:57.602Z,99.90
2022-09-01T05:04:28.710Z,99.90
2022-09-01T05:07:01.215Z,99.90
2022-09-01T05:09:30.983Z,99.90
2022-09-01T05:12:09.018Z,99.90
2022-09-01T05:14:37.049Z,99.90
2022-09-01T05:17:04.346Z,99.90
2022-09-01T05:19:31.338Z,99.90
2022-09-01T05:21:58.471Z,99.90
2022-09-01T05:24:30.491Z,99.90
2022-09-01T05:26:57.946Z,99.90
2022-09-01T05:29:27.832Z,99.90
2022-09-01T05:39:33.252Z,99.90
2022-09-01T05:42:01.684Z,99.90
2022-09-01T05:44:28.680Z,99.90
2022-09-01T05:47:00.137Z,99.90
2022-09-01T05:49:28.811Z,99.90
2022-09-01T05:51:59.031Z,99.90
2022-09-01T05:54:27.946Z,99.90
2022-09-01T05:59:41.599Z,99.90
2022-09-01T06:02:09.392Z,99.90
2022-09-01T06:04:41.339Z,99.90
2022-09-01T06:07:11.935Z,99.90
2022-09-01T06:09:43.976Z,99.90
2022-09-01T06:12:18.544Z,99.90
2022-09-01T06:14:47.431Z,99.90
2022-09-01T06:17:16.695Z,99.90
2022-09-01T06:19:44.396Z,99.90
2022-09-01T06:22:12.310Z,99.90
2022-09-01T06:24:43.483Z,99.90
2022-09-01T06:27:11.988Z,99.90
2022-09-01T06:29:39.956Z,99.90
2022-09-01T06:32:12.654Z,99.90
2022-09-01T06:34:42.676Z,99.90
2022-09-01T06:37:13.547Z,99.90
2022-09-01T06:39:40.466Z,99.90
2022-09-01T06:42:09.626Z,99.90
2022-09-01T06:44:40.743Z,99.90
2022-09-01T06:47:09.180Z,99.90
2022-09-01T06:49:36.826Z,99.90
2022-09-01T06:52:04.917Z,96.70
2022-09-01T06:54:36.544Z,96.70
2022-09-01T06:59:54.213Z,96.40
2022-09-01T07:02:22.399Z,95.50
2022-09-01T07:04:53.742Z,95.80
2022-09-01T07:10:25.409Z,97.60
2022-09-01T07:13:06.295Z,99.30
2022-09-01T07:18:26.684Z,97.50
2022-09-01T07:21:38.760Z,96.20
2022-09-01T07:24:07.560Z,94.40
2022-09-01T07:26:31.418Z,93.90
2022-09-01T07:29:01.992Z,94.10
2022-09-01T07:39:56.074Z,76.50
2022-09-01T07:47:56.162Z,88.70
2022-09-01T07:50:38.557Z,92.20
2022-09-01T07:53:09.362Z,92.60
2022-09-01T07:55:42.233Z,91.80
2022-09-01T07:58:12.061Z,92.30
2022-09-01T08:00:40.204Z,92.90
2022-09-01T08:03:07.245Z,87.20
2022-09-01T08:05:34.333Z,84.50
2022-09-01T08:08:01.342Z,84.40
2022-09-01T08:10:28.709Z,82.10
2022-09-01T08:18:14.229Z,72.60
2022-09-01T08:20:45.680Z,63.30
2022-09-01T08:23:15.975Z,63.90
2022-09-01T08:25:44.344Z,62.30
2022-09-01T08:28:12.723Z,61.70
2022-09-01T08:30:41.586Z,61.30
2022-09-01T08:33:18.957Z,60.20
2022-09-01T08:35:48.830Z,60.90
2022-09-01T08:38:15.958Z,61.10
2022-09-01T08:40:49.650Z,59.10
2022-09-01T08:43:35.458Z,58.00
2022-09-01T08:46:27.548Z,59.30
2022-09-01T08:52:15.575Z,60.00
2022-09-01T08:54:50.559Z,58.80
2022-09-01T08:57:29.669Z,59.20
2022-09-01T08:59:57.662Z,58.90
2022-09-01T09:02:37.022Z,57.50
2022-09-01T09:05:28.499Z,57.50
2022-09-01T09:08:33.172Z,57.80
2022-09-01T09:11:28.490Z,58.50
2022-09-01T09:14:02.853Z,56.80
2022-09-01T09:16:39.437Z,57.10
2022-09-01T09:19:32.049Z,58.10
2022-09-01T09:22:02.531Z,57.80
2022-09-01T09:24:47.320Z,58.30
2022-09-01T09:27:44.716Z,58.50
2022-09-01T09:30:31.532Z,58.40
2022-09-01T09:35:51.057Z,60.60
2022-09-01T09:38:28.539Z,59.70
2022-09-01T09:41:16.456Z,59.50
2022-09-01T09:44:19.762Z,59.90
2022-09-01T09:46:48.877Z,57.80
2022-09-01T09:49:21.546Z,57.30
2022-09-01T09:52:10.776Z,56.90
2022-09-01T09:54:40.151Z,55.30
2022-09-01T09:57:14.468Z,55.10
2022-09-01T09:59:58.845Z,56.00
2022-09-01T10:02:32.713Z,55.10
2022-09-01T10:05:02.834Z,56.00
2022-09-01T10:07:36.866Z,55.40
2022-09-01T10:10:26.077Z,55.90
2022-09-01T10:12:54.865Z,55.40
2022-09-01T10:15:25.592Z,56.30
2022-09-01T10:18:19.548Z,55.70
2022-09-01T10:21:03.026Z,53.80
2022-09-01T10:23:34.823Z,55.40
2022-09-01T10:26:11.260Z,54.70
2022-09-01T10:28:49.603Z,56.00
2022-09-01T10:31:18.351Z,55.90
2022-09-01T10:33:45.705Z,56.10
2022-09-01T10:36:15.943Z,53.50
2022-09-01T10:38:52.681Z,52.30
2022-09-01T10:41:48.324Z,53.00
2022-09-01T10:44:23.899Z,53.80
2022-09-01T10:46:52.420Z,54.00
2022-09-01T10:49:29.691Z,50.80
2022-09-01T10:52:03.300Z,52.50
2022-09-01T10:54:50.827Z,52.50
2022-09-01T10:57:42.410Z,53.40
2022-09-01T11:00:40.459Z,54.80
2022-09-01T11:06:13.061Z,53.00
2022-09-01T11:08:42.356Z,53.00
2022-09-01T11:14:06.202Z,50.30
2022-09-01T16:55:47.080Z,78.90
2022-09-01T17:01:03.199Z,85.90
2022-09-01T17:03:42.643Z,81.40
2022-09-01T17:06:34.587Z,83.90
2022-09-01T17:09:13.141Z,81.00
2022-09-01T17:11:50.329Z,82.30
2022-09-01T17:46:08.603Z,99.90
